JIA25 KSAV-KPHL
Flight info
| Callsign | JIA25 |
|---|---|
| Flight time | 1h 30m |
| Altitude | 33000 |
| Route | DCT JROSS DCT RAPZZ Q135 RREGG Q117 SAWED Q97 ZJAAY JIIMS4 |
| Aircraft | CRJ9/M-SDFGIRWY/S |
Departure
| Time | 2026-04-25 19:04 |
|---|---|
| Airport | Savannah Hilton Head International Airport (KSAV) |
Arrival
| Time | 2026-04-25 20:34 |
|---|---|
| Airport | Philadelphia International Airport (KPHL) |
| Time | Latitude | Longitude | Altitude | Speed | Heading |
|---|---|---|---|---|---|
| 2026-04-25 18:37 | 32.13606 | -81.20806 | 52 ft | 0 kts | 180° |
| 2026-04-25 18:52 | 32.13618 | -81.20806 | 50 ft | 4 kts | 178° |
| 2026-04-25 18:52 | 32.13645 | -81.20811 | 50 ft | 4 kts | 164° |
| 2026-04-25 18:52 | 32.13667 | -81.20825 | 51 ft | 4 kts | 133° |
| 2026-04-25 18:52 | 32.13674 | -81.20845 | 52 ft | 1 kts | 90° |
| 2026-04-25 18:55 | 32.13674 | -81.20830 | 52 ft | 3 kts | 90° |
| 2026-04-25 18:55 | 32.13674 | -81.20788 | 52 ft | 7 kts | 90° |
| 2026-04-25 18:55 | 32.13673 | -81.20732 | 52 ft | 7 kts | 90° |
| 2026-04-25 18:55 | 32.13673 | -81.20671 | 52 ft | 8 kts | 90° |
| 2026-04-25 18:56 | 32.13672 | -81.20604 | 52 ft | 9 kts | 91° |
| 2026-04-25 18:56 | 32.13671 | -81.20511 | 52 ft | 13 kts | 91° |
| 2026-04-25 18:56 | 32.13670 | -81.20394 | 52 ft | 15 kts | 91° |
| 2026-04-25 18:56 | 32.13649 | -81.20340 | 52 ft | 4 kts | 146° |
| 2026-04-25 18:57 | 32.13625 | -81.20333 | 49 ft | 4 kts | 175° |
| 2026-04-25 18:57 | 32.13591 | -81.20321 | 52 ft | 7 kts | 140° |
| 2026-04-25 18:57 | 32.13572 | -81.20244 | 52 ft | 13 kts | 88° |
| 2026-04-25 18:57 | 32.13573 | -81.20209 | 52 ft | 13 kts | 88° |
| 2026-04-25 18:58 | 32.13565 | -81.20027 | 46 ft | 15 kts | 103° |
| 2026-04-25 18:58 | 32.13534 | -81.19830 | 51 ft | 10 kts | 152° |
| 2026-04-25 18:58 | 32.13469 | -81.19819 | 51 ft | 9 kts | 179° |
| 2026-04-25 18:59 | 32.13345 | -81.19819 | 51 ft | 9 kts | 179° |
| 2026-04-25 18:59 | 32.13196 | -81.19818 | 51 ft | 13 kts | 179° |
| 2026-04-25 19:00 | 32.13016 | -81.19776 | 50 ft | 13 kts | 111° |
| 2026-04-25 19:00 | 32.12991 | -81.19673 | 46 ft | 13 kts | 109° |
| 2026-04-25 19:01 | 32.12963 | -81.19459 | 48 ft | 13 kts | 90° |
| 2026-04-25 19:01 | 32.12962 | -81.19349 | 48 ft | 13 kts | 90° |
| 2026-04-25 19:01 | 32.12961 | -81.19241 | 47 ft | 13 kts | 90° |
| 2026-04-25 19:01 | 32.12962 | -81.19131 | 47 ft | 13 kts | 90° |
| 2026-04-25 19:02 | 32.12956 | -81.18912 | 46 ft | 13 kts | 109° |
| 2026-04-25 19:02 | 32.12870 | -81.18882 | 38 ft | 11 kts | 211° |
| 2026-04-25 19:02 | 32.12850 | -81.18935 | 37 ft | 6 kts | 267° |
| 2026-04-25 19:03 | 32.12849 | -81.19198 | 40 ft | 58 kts | 271° |
| 2026-04-25 19:03 | 32.12861 | -81.20568 | 40 ft | 137 kts | 271° |
| 2026-04-25 19:03 | 32.12884 | -81.21792 | 140 ft | 155 kts | 268° |
| 2026-04-25 19:04 | 32.13012 | -81.24518 | 747 ft | 195 kts | 270° |
| 2026-04-25 19:04 | 32.13138 | -81.26122 | 1563 ft | 189 kts | 278° |
| 2026-04-25 19:05 | 32.14245 | -81.28930 | 2748 ft | 214 kts | 301° |
| 2026-04-25 19:05 | 32.16506 | -81.31521 | 4130 ft | 228 kts | 326° |
| 2026-04-25 19:05 | 32.17997 | -81.32209 | 4847 ft | 234 kts | 351° |
| 2026-04-25 19:06 | 32.19654 | -81.32254 | 5495 ft | 242 kts | 8° |
| 2026-04-25 19:06 | 32.22497 | -81.30125 | 6969 ft | 247 kts | 41° |
| 2026-04-25 19:06 | 32.23804 | -81.28703 | 7556 ft | 262 kts | 44° |
| 2026-04-25 19:07 | 32.26232 | -81.25452 | 9095 ft | 266 kts | 51° |
| 2026-04-25 19:07 | 32.27404 | -81.23716 | 9654 ft | 281 kts | 50° |
| 2026-04-25 19:08 | 32.29991 | -81.20092 | 11003 ft | 291 kts | 48° |
| 2026-04-25 19:08 | 32.31326 | -81.18271 | 11733 ft | 295 kts | 48° |
| 2026-04-25 19:09 | 32.35393 | -81.12632 | 13810 ft | 305 kts | 47° |
| 2026-04-25 19:09 | 32.35842 | -81.12009 | 14014 ft | 306 kts | 47° |
| 2026-04-25 19:09 | 32.39718 | -81.06605 | 14951 ft | 345 kts | 47° |
| 2026-04-25 19:10 | 32.41297 | -81.04403 | 15433 ft | 353 kts | 47° |
| 2026-04-25 19:10 | 32.42901 | -81.02171 | 16052 ft | 357 kts | 47° |
| 2026-04-25 19:10 | 32.44518 | -80.99917 | 16653 ft | 361 kts | 47° |
| 2026-04-25 19:10 | 32.46166 | -80.97619 | 17026 ft | 373 kts | 47° |
| 2026-04-25 19:11 | 32.47853 | -80.95265 | 17569 ft | 377 kts | 47° |
| 2026-04-25 19:11 | 32.49533 | -80.92918 | 18136 ft | 381 kts | 47° |
| 2026-04-25 19:11 | 32.51263 | -80.90505 | 18682 ft | 384 kts | 47° |
| 2026-04-25 19:11 | 32.52999 | -80.88079 | 19207 ft | 386 kts | 47° |
| 2026-04-25 19:12 | 32.54743 | -80.85638 | 19730 ft | 389 kts | 47° |
| 2026-04-25 19:12 | 32.56492 | -80.83188 | 20245 ft | 391 kts | 48° |
| 2026-04-25 19:12 | 32.57661 | -80.81548 | 20595 ft | 392 kts | 48° |
| 2026-04-25 19:12 | 32.60005 | -80.78261 | 21248 ft | 396 kts | 48° |
| 2026-04-25 19:13 | 32.61787 | -80.75761 | 21715 ft | 398 kts | 48° |
| 2026-04-25 19:13 | 32.63578 | -80.73248 | 22179 ft | 401 kts | 48° |
| 2026-04-25 19:13 | 32.65393 | -80.70703 | 22623 ft | 404 kts | 48° |
| 2026-04-25 19:13 | 32.66592 | -80.69016 | 22899 ft | 405 kts | 48° |
| 2026-04-25 19:14 | 32.68432 | -80.66423 | 23278 ft | 410 kts | 48° |
| 2026-04-25 19:14 | 32.69657 | -80.64702 | 23550 ft | 412 kts | 49° |
| 2026-04-25 19:14 | 32.72152 | -80.61226 | 24030 ft | 415 kts | 47° |
| 2026-04-25 19:14 | 32.74070 | -80.58651 | 24400 ft | 417 kts | 47° |
| 2026-04-25 19:15 | 32.75997 | -80.56058 | 24764 ft | 419 kts | 47° |
| 2026-04-25 19:15 | 32.77931 | -80.53445 | 25101 ft | 421 kts | 47° |
| 2026-04-25 19:15 | 32.79873 | -80.50821 | 25440 ft | 423 kts | 47° |
| 2026-04-25 19:15 | 32.81795 | -80.48218 | 25762 ft | 425 kts | 47° |
| 2026-04-25 19:16 | 32.83778 | -80.45531 | 26083 ft | 427 kts | 47° |
| 2026-04-25 19:16 | 32.85742 | -80.42870 | 26412 ft | 429 kts | 47° |
| 2026-04-25 19:16 | 32.87695 | -80.40221 | 26727 ft | 431 kts | 47° |
| 2026-04-25 19:16 | 32.89675 | -80.37532 | 27011 ft | 433 kts | 47° |
| 2026-04-25 19:17 | 32.91672 | -80.34819 | 27304 ft | 435 kts | 47° |
| 2026-04-25 19:17 | 32.93673 | -80.32099 | 27621 ft | 437 kts | 47° |
| 2026-04-25 19:17 | 32.95621 | -80.29447 | 27895 ft | 440 kts | 47° |
| 2026-04-25 19:17 | 32.97699 | -80.26618 | 28178 ft | 442 kts | 47° |
| 2026-04-25 19:18 | 32.99733 | -80.23847 | 28457 ft | 444 kts | 47° |
| 2026-04-25 19:18 | 33.01766 | -80.21075 | 28729 ft | 446 kts | 47° |
| 2026-04-25 19:18 | 33.03808 | -80.18289 | 29002 ft | 447 kts | 47° |
| 2026-04-25 19:18 | 33.05829 | -80.15526 | 29253 ft | 449 kts | 47° |
| 2026-04-25 19:19 | 33.07892 | -80.12707 | 29503 ft | 451 kts | 47° |
| 2026-04-25 19:19 | 33.09955 | -80.09884 | 29758 ft | 453 kts | 47° |
| 2026-04-25 19:19 | 33.12022 | -80.07054 | 29986 ft | 454 kts | 47° |
| 2026-04-25 19:19 | 33.13432 | -80.05127 | 30128 ft | 455 kts | 47° |
| 2026-04-25 19:20 | 33.16193 | -80.01338 | 30401 ft | 457 kts | 47° |
| 2026-04-25 19:20 | 33.18282 | -79.98470 | 30595 ft | 458 kts | 47° |
| 2026-04-25 19:20 | 33.20382 | -79.95588 | 30784 ft | 460 kts | 47° |
| 2026-04-25 19:20 | 33.22488 | -79.92693 | 30974 ft | 461 kts | 47° |
| 2026-04-25 19:21 | 33.24594 | -79.89799 | 31145 ft | 462 kts | 47° |
| 2026-04-25 19:21 | 33.28796 | -79.84009 | 31498 ft | 465 kts | 47° |
| 2026-04-25 19:21 | 33.30916 | -79.81085 | 31646 ft | 466 kts | 47° |
| 2026-04-25 19:22 | 33.33038 | -79.78156 | 31889 ft | 466 kts | 47° |
| 2026-04-25 19:22 | 33.35161 | -79.75224 | 32117 ft | 465 kts | 47° |
| 2026-04-25 19:22 | 33.39389 | -79.69379 | 32561 ft | 464 kts | 47° |
| 2026-04-25 19:23 | 33.41505 | -79.66449 | 32752 ft | 465 kts | 47° |
| 2026-04-25 19:23 | 33.45741 | -79.60576 | 32871 ft | 471 kts | 47° |
| 2026-04-25 19:23 | 33.47893 | -79.57590 | 32890 ft | 476 kts | 47° |
| 2026-04-25 19:24 | 33.52252 | -79.51531 | 32903 ft | 484 kts | 47° |
| 2026-04-25 19:25 | 33.61164 | -79.39119 | 32901 ft | 496 kts | 47° |
| 2026-04-25 19:25 | 33.65662 | -79.32835 | 32895 ft | 501 kts | 47° |
| 2026-04-25 19:26 | 33.70228 | -79.26443 | 32894 ft | 505 kts | 47° |
| 2026-04-25 19:26 | 33.74820 | -79.20007 | 32892 ft | 508 kts | 47° |
| 2026-04-25 19:27 | 33.78648 | -79.14631 | 32893 ft | 510 kts | 47° |
| 2026-04-25 19:27 | 33.84019 | -79.07075 | 32894 ft | 509 kts | 47° |
| 2026-04-25 19:28 | 33.88534 | -79.00710 | 32876 ft | 490 kts | 47° |
| 2026-04-25 19:28 | 33.92925 | -78.94511 | 32877 ft | 485 kts | 47° |
| 2026-04-25 19:29 | 33.97299 | -78.88328 | 32896 ft | 485 kts | 47° |
| 2026-04-25 19:29 | 34.01640 | -78.82175 | 32897 ft | 484 kts | 47° |
| 2026-04-25 19:30 | 34.06020 | -78.75959 | 32892 ft | 484 kts | 47° |
| 2026-04-25 19:30 | 34.10356 | -78.69793 | 32887 ft | 486 kts | 47° |
| 2026-04-25 19:31 | 34.14749 | -78.63536 | 32896 ft | 490 kts | 47° |
| 2026-04-25 19:31 | 34.19166 | -78.57233 | 32893 ft | 492 kts | 47° |
| 2026-04-25 19:32 | 34.23604 | -78.50895 | 32889 ft | 495 kts | 48° |
| 2026-04-25 19:32 | 34.27565 | -78.45930 | 32882 ft | 493 kts | 39° |
| 2026-04-25 19:33 | 34.33686 | -78.39712 | 32879 ft | 495 kts | 38° |
| 2026-04-25 19:33 | 34.38877 | -78.34180 | 32872 ft | 498 kts | 39° |
| 2026-04-25 19:34 | 34.44053 | -78.28640 | 32865 ft | 499 kts | 39° |
| 2026-04-25 19:34 | 34.49260 | -78.23059 | 32860 ft | 499 kts | 39° |
| 2026-04-25 19:35 | 34.54446 | -78.17481 | 32860 ft | 498 kts | 39° |
| 2026-04-25 19:35 | 34.59634 | -78.11901 | 32859 ft | 498 kts | 39° |
| 2026-04-25 19:36 | 34.64785 | -78.06348 | 32862 ft | 498 kts | 39° |
| 2026-04-25 19:36 | 34.69704 | -78.01032 | 32860 ft | 498 kts | 39° |
| 2026-04-25 19:37 | 34.74921 | -77.95391 | 32865 ft | 498 kts | 39° |
| 2026-04-25 19:37 | 34.80100 | -77.89783 | 32862 ft | 499 kts | 39° |
| 2026-04-25 19:38 | 34.85288 | -77.84158 | 32863 ft | 499 kts | 39° |
| 2026-04-25 19:38 | 34.90486 | -77.78554 | 32879 ft | 499 kts | 38° |
| 2026-04-25 19:39 | 34.95790 | -77.73087 | 32881 ft | 499 kts | 38° |
| 2026-04-25 19:39 | 35.01053 | -77.67621 | 32880 ft | 499 kts | 38° |
| 2026-04-25 19:40 | 35.06344 | -77.62125 | 32865 ft | 500 kts | 38° |
| 2026-04-25 19:40 | 35.11638 | -77.56618 | 32869 ft | 500 kts | 38° |
| 2026-04-25 19:41 | 35.17229 | -77.51636 | 32869 ft | 497 kts | 29° |
| 2026-04-25 19:41 | 35.21217 | -77.48787 | 32870 ft | 496 kts | 27° |
| 2026-04-25 19:42 | 35.29128 | -77.43017 | 32863 ft | 497 kts | 29° |
| 2026-04-25 19:42 | 35.35030 | -77.38596 | 32865 ft | 497 kts | 28° |
| 2026-04-25 19:43 | 35.40903 | -77.34192 | 32848 ft | 498 kts | 28° |
| 2026-04-25 19:43 | 35.46824 | -77.29743 | 32843 ft | 499 kts | 28° |
| 2026-04-25 19:44 | 35.52734 | -77.25291 | 32843 ft | 499 kts | 28° |
| 2026-04-25 19:44 | 35.58659 | -77.20822 | 32856 ft | 500 kts | 28° |
| 2026-04-25 19:45 | 35.64597 | -77.16347 | 32852 ft | 500 kts | 28° |
| 2026-04-25 19:45 | 35.70506 | -77.11862 | 32847 ft | 501 kts | 28° |
| 2026-04-25 19:46 | 35.76428 | -77.07390 | 32838 ft | 501 kts | 28° |
| 2026-04-25 19:46 | 35.82366 | -77.02893 | 32844 ft | 501 kts | 28° |
| 2026-04-25 19:47 | 35.88323 | -76.98385 | 32832 ft | 501 kts | 28° |
| 2026-04-25 19:47 | 35.94311 | -76.93963 | 32831 ft | 501 kts | 26° |
| 2026-04-25 19:48 | 36.00456 | -76.89893 | 32829 ft | 500 kts | 24° |
| 2026-04-25 19:48 | 36.06612 | -76.85877 | 32835 ft | 501 kts | 24° |
| 2026-04-25 19:49 | 36.10682 | -76.83179 | 32836 ft | 501 kts | 25° |
| 2026-04-25 19:49 | 36.18854 | -76.77721 | 32835 ft | 502 kts | 25° |
| 2026-04-25 19:50 | 36.28074 | -76.71542 | 32830 ft | 502 kts | 25° |
| 2026-04-25 19:51 | 36.34221 | -76.67413 | 32824 ft | 502 kts | 25° |
| 2026-04-25 19:51 | 36.40370 | -76.63279 | 32831 ft | 502 kts | 25° |
| 2026-04-25 19:52 | 36.46515 | -76.59135 | 32828 ft | 503 kts | 25° |
| 2026-04-25 19:52 | 36.52665 | -76.54984 | 32830 ft | 503 kts | 25° |
| 2026-04-25 19:53 | 36.58778 | -76.50850 | 32830 ft | 503 kts | 25° |
| 2026-04-25 19:53 | 36.64926 | -76.46679 | 32831 ft | 503 kts | 25° |
| 2026-04-25 19:54 | 36.71082 | -76.42503 | 32858 ft | 503 kts | 25° |
| 2026-04-25 19:54 | 36.77233 | -76.38318 | 32852 ft | 503 kts | 25° |
| 2026-04-25 19:55 | 36.83374 | -76.34130 | 32851 ft | 503 kts | 25° |
| 2026-04-25 19:55 | 36.89486 | -76.29961 | 32876 ft | 503 kts | 25° |
| 2026-04-25 19:56 | 36.95638 | -76.25750 | 32880 ft | 503 kts | 25° |
| 2026-04-25 19:56 | 37.01749 | -76.21568 | 32878 ft | 503 kts | 25° |
| 2026-04-25 19:57 | 37.07889 | -76.17352 | 32861 ft | 503 kts | 24° |
| 2026-04-25 19:57 | 37.14019 | -76.13137 | 32864 ft | 503 kts | 24° |
| 2026-04-25 19:58 | 37.20157 | -76.08904 | 32868 ft | 503 kts | 24° |
| 2026-04-25 19:58 | 37.26286 | -76.04675 | 32867 ft | 503 kts | 24° |
| 2026-04-25 19:59 | 37.32392 | -76.00451 | 32871 ft | 503 kts | 24° |
| 2026-04-25 19:59 | 37.38515 | -75.96204 | 32881 ft | 502 kts | 24° |
| 2026-04-25 20:00 | 37.44643 | -75.91958 | 32889 ft | 502 kts | 24° |
| 2026-04-25 20:00 | 37.49747 | -75.88416 | 32896 ft | 502 kts | 24° |
| 2026-04-25 20:01 | 37.59824 | -75.81039 | 32901 ft | 504 kts | 26° |
| 2026-04-25 20:01 | 37.65827 | -75.76444 | 32899 ft | 504 kts | 26° |
| 2026-04-25 20:02 | 37.70839 | -75.72676 | 32899 ft | 504 kts | 26° |
| 2026-04-25 20:02 | 37.77836 | -75.67411 | 32908 ft | 504 kts | 26° |
| 2026-04-25 20:03 | 37.82886 | -75.63609 | 32927 ft | 504 kts | 26° |
| 2026-04-25 20:03 | 37.88808 | -75.58807 | 32926 ft | 507 kts | 30° |
| 2026-04-25 20:04 | 37.94554 | -75.53655 | 32930 ft | 507 kts | 31° |
| 2026-04-25 20:04 | 38.00334 | -75.48572 | 32929 ft | 507 kts | 30° |
| 2026-04-25 20:05 | 38.06268 | -75.43721 | 32929 ft | 501 kts | 23° |
| 2026-04-25 20:05 | 38.12502 | -75.39988 | 32936 ft | 496 kts | 18° |
| 2026-04-25 20:06 | 38.18825 | -75.36449 | 32949 ft | 497 kts | 19° |
| 2026-04-25 20:06 | 38.25124 | -75.32746 | 32950 ft | 496 kts | 19° |
| 2026-04-25 20:07 | 38.31351 | -75.29082 | 32945 ft | 496 kts | 20° |
| 2026-04-25 20:07 | 38.37620 | -75.25392 | 32947 ft | 496 kts | 20° |
| 2026-04-25 20:08 | 38.43891 | -75.21692 | 32952 ft | 496 kts | 20° |
| 2026-04-25 20:08 | 38.50046 | -75.18062 | 32951 ft | 496 kts | 20° |
| 2026-04-25 20:09 | 38.56420 | -75.14289 | 32977 ft | 497 kts | 20° |
| 2026-04-25 20:09 | 38.62636 | -75.10354 | 32981 ft | 498 kts | 22° |
| 2026-04-25 20:10 | 38.68777 | -75.06351 | 32927 ft | 499 kts | 22° |
| 2026-04-25 20:10 | 38.71845 | -75.04375 | 32774 ft | 484 kts | 21° |
| 2026-04-25 20:10 | 38.74798 | -75.02478 | 32253 ft | 469 kts | 21° |
| 2026-04-25 20:11 | 38.77769 | -75.00588 | 30767 ft | 481 kts | 21° |
| 2026-04-25 20:11 | 38.80805 | -74.98659 | 29403 ft | 491 kts | 22° |
| 2026-04-25 20:11 | 38.83861 | -74.96718 | 28343 ft | 487 kts | 22° |
| 2026-04-25 20:11 | 38.86871 | -74.94784 | 27562 ft | 477 kts | 22° |
| 2026-04-25 20:12 | 38.89813 | -74.92892 | 26822 ft | 469 kts | 22° |
| 2026-04-25 20:12 | 38.92704 | -74.91027 | 26106 ft | 461 kts | 22° |
| 2026-04-25 20:12 | 38.95549 | -74.89183 | 25421 ft | 453 kts | 22° |
| 2026-04-25 20:12 | 38.97401 | -74.87985 | 24985 ft | 448 kts | 22° |
| 2026-04-25 20:13 | 39.01088 | -74.85603 | 24122 ft | 439 kts | 22° |
| 2026-04-25 20:13 | 39.03802 | -74.83851 | 23487 ft | 433 kts | 22° |
| 2026-04-25 20:13 | 39.06471 | -74.82126 | 22766 ft | 426 kts | 21° |
| 2026-04-25 20:13 | 39.09193 | -74.81014 | 22090 ft | 409 kts | 1° |
| 2026-04-25 20:14 | 39.12001 | -74.81181 | 21457 ft | 394 kts | 347° |
| 2026-04-25 20:14 | 39.14634 | -74.81841 | 20853 ft | 386 kts | 342° |
| 2026-04-25 20:14 | 39.17204 | -74.82743 | 20250 ft | 380 kts | 339° |
| 2026-04-25 20:14 | 39.19724 | -74.83755 | 19668 ft | 376 kts | 338° |
| 2026-04-25 20:15 | 39.22202 | -74.84753 | 19203 ft | 369 kts | 338° |
| 2026-04-25 20:15 | 39.24646 | -74.85738 | 18746 ft | 364 kts | 338° |
| 2026-04-25 20:15 | 39.27055 | -74.86665 | 18281 ft | 359 kts | 339° |
| 2026-04-25 20:15 | 39.29445 | -74.87570 | 17746 ft | 355 kts | 339° |
| 2026-04-25 20:16 | 39.31776 | -74.88452 | 17263 ft | 351 kts | 339° |
| 2026-04-25 20:16 | 39.34107 | -74.89331 | 16770 ft | 347 kts | 339° |
| 2026-04-25 20:16 | 39.36404 | -74.90207 | 16309 ft | 343 kts | 339° |
| 2026-04-25 20:16 | 39.38679 | -74.91070 | 15859 ft | 339 kts | 339° |
| 2026-04-25 20:17 | 39.40936 | -74.91918 | 15415 ft | 336 kts | 339° |
| 2026-04-25 20:17 | 39.43169 | -74.92759 | 15005 ft | 332 kts | 339° |
| 2026-04-25 20:17 | 39.45378 | -74.93595 | 14622 ft | 328 kts | 339° |
| 2026-04-25 20:17 | 39.47558 | -74.94421 | 14240 ft | 325 kts | 339° |
| 2026-04-25 20:18 | 39.49721 | -74.95239 | 13861 ft | 322 kts | 339° |
| 2026-04-25 20:18 | 39.51855 | -74.96055 | 13435 ft | 318 kts | 338° |
| 2026-04-25 20:18 | 39.53738 | -74.97423 | 13009 ft | 305 kts | 312° |
| 2026-04-25 20:18 | 39.55083 | -74.99450 | 12611 ft | 298 kts | 301° |
| 2026-04-25 20:19 | 39.56178 | -75.01703 | 12214 ft | 293 kts | 296° |
| 2026-04-25 20:19 | 39.57379 | -75.03831 | 11811 ft | 297 kts | 316° |
| 2026-04-25 20:19 | 39.59248 | -75.04944 | 11454 ft | 301 kts | 346° |
| 2026-04-25 20:19 | 39.61314 | -75.05316 | 11148 ft | 296 kts | 341° |
| 2026-04-25 20:20 | 39.63217 | -75.06200 | 10847 ft | 286 kts | 329° |
| 2026-04-25 20:20 | 39.64986 | -75.07363 | 10555 ft | 284 kts | 327° |
| 2026-04-25 20:20 | 39.66719 | -75.08512 | 10252 ft | 282 kts | 328° |
| 2026-04-25 20:20 | 39.68491 | -75.09601 | 9953 ft | 281 kts | 329° |
| 2026-04-25 20:21 | 39.70266 | -75.10634 | 9596 ft | 279 kts | 330° |
| 2026-04-25 20:21 | 39.72025 | -75.11672 | 9254 ft | 277 kts | 329° |
| 2026-04-25 20:21 | 39.73783 | -75.12720 | 8912 ft | 277 kts | 330° |
| 2026-04-25 20:21 | 39.75534 | -75.13760 | 8571 ft | 276 kts | 330° |
| 2026-04-25 20:22 | 39.77276 | -75.14796 | 8284 ft | 273 kts | 330° |
| 2026-04-25 20:22 | 39.78414 | -75.15472 | 8087 ft | 272 kts | 330° |
| 2026-04-25 20:22 | 39.80708 | -75.16833 | 7689 ft | 268 kts | 330° |
| 2026-04-25 20:22 | 39.82394 | -75.17833 | 7391 ft | 265 kts | 330° |
| 2026-04-25 20:23 | 39.84054 | -75.18828 | 7111 ft | 261 kts | 330° |
| 2026-04-25 20:23 | 39.85680 | -75.19793 | 6829 ft | 256 kts | 330° |
| 2026-04-25 20:23 | 39.87282 | -75.20725 | 6535 ft | 249 kts | 331° |
| 2026-04-25 20:23 | 39.88963 | -75.21259 | 6299 ft | 251 kts | 351° |
| 2026-04-25 20:24 | 39.90670 | -75.21585 | 6066 ft | 246 kts | 344° |
| 2026-04-25 20:24 | 39.92343 | -75.22043 | 5823 ft | 245 kts | 343° |
| 2026-04-25 20:24 | 39.93989 | -75.22523 | 5578 ft | 244 kts | 342° |
| 2026-04-25 20:24 | 39.95650 | -75.23018 | 5355 ft | 244 kts | 342° |
| 2026-04-25 20:25 | 39.97295 | -75.23517 | 5137 ft | 241 kts | 342° |
| 2026-04-25 20:25 | 39.98927 | -75.24020 | 4931 ft | 240 kts | 342° |
| 2026-04-25 20:25 | 40.00551 | -75.24525 | 4701 ft | 237 kts | 342° |
| 2026-04-25 20:25 | 40.02125 | -75.25035 | 4499 ft | 235 kts | 342° |
| 2026-04-25 20:26 | 40.03695 | -75.25569 | 4352 ft | 231 kts | 342° |
| 2026-04-25 20:26 | 40.05245 | -75.26096 | 4142 ft | 230 kts | 345° |
| 2026-04-25 20:26 | 40.06811 | -75.26549 | 3972 ft | 231 kts | 347° |
| 2026-04-25 20:26 | 40.08387 | -75.26998 | 3759 ft | 232 kts | 347° |
| 2026-04-25 20:27 | 40.09878 | -75.27727 | 3517 ft | 228 kts | 319° |
| 2026-04-25 20:27 | 40.10853 | -75.29258 | 3355 ft | 214 kts | 285° |
| 2026-04-25 20:27 | 40.10921 | -75.31051 | 3210 ft | 188 kts | 239° |
| 2026-04-25 20:27 | 40.10180 | -75.32352 | 3079 ft | 178 kts | 217° |
| 2026-04-25 20:28 | 40.09218 | -75.33309 | 2942 ft | 170 kts | 187° |
| 2026-04-25 20:28 | 40.08126 | -75.33181 | 2924 ft | 156 kts | 161° |
| 2026-04-25 20:28 | 40.07064 | -75.32791 | 2902 ft | 163 kts | 159° |
| 2026-04-25 20:28 | 40.05994 | -75.32295 | 2849 ft | 164 kts | 156° |
| 2026-04-25 20:29 | 40.05000 | -75.31774 | 2839 ft | 145 kts | 154° |
| 2026-04-25 20:29 | 40.04091 | -75.31283 | 2818 ft | 139 kts | 154° |
| 2026-04-25 20:29 | 40.03204 | -75.30804 | 2822 ft | 137 kts | 154° |
| 2026-04-25 20:29 | 40.02329 | -75.30349 | 2816 ft | 137 kts | 154° |
| 2026-04-25 20:30 | 40.01437 | -75.29887 | 2815 ft | 140 kts | 155° |
| 2026-04-25 20:30 | 40.00475 | -75.29434 | 2544 ft | 149 kts | 155° |
| 2026-04-25 20:30 | 39.99527 | -75.28983 | 2345 ft | 141 kts | 154° |
| 2026-04-25 20:30 | 39.98624 | -75.28537 | 2157 ft | 137 kts | 153° |
| 2026-04-25 20:31 | 39.97717 | -75.28070 | 2014 ft | 144 kts | 153° |
| 2026-04-25 20:31 | 39.96761 | -75.27584 | 1786 ft | 154 kts | 153° |
| 2026-04-25 20:31 | 39.95729 | -75.27078 | 1546 ft | 158 kts | 153° |
| 2026-04-25 20:31 | 39.94769 | -75.26597 | 1321 ft | 137 kts | 154° |
| 2026-04-25 20:32 | 39.93916 | -75.26182 | 1127 ft | 127 kts | 153° |
| 2026-04-25 20:32 | 39.93082 | -75.25759 | 978 ft | 131 kts | 153° |
| 2026-04-25 20:32 | 39.92218 | -75.25325 | 838 ft | 136 kts | 153° |
| 2026-04-25 20:32 | 39.91290 | -75.24864 | 591 ft | 148 kts | 153° |
| 2026-04-25 20:33 | 39.90330 | -75.24376 | 409 ft | 148 kts | 155° |
| 2026-04-25 20:33 | 39.89404 | -75.23943 | 171 ft | 137 kts | 153° |
| 2026-04-25 20:33 | 39.88543 | -75.23501 | 17 ft | 127 kts | 154° |
| 2026-04-25 20:33 | 39.88050 | -75.23250 | 19 ft | 102 kts | 161° |
| 2026-04-25 20:34 | 39.87334 | -75.22893 | 17 ft | 66 kts | 160° |
| 2026-04-25 20:34 | 39.87146 | -75.22808 | 21 ft | 10 kts | 172° |
| 2026-04-25 20:34 | 39.87115 | -75.22814 | 21 ft | 0 kts | 217° |
| 2026-04-25 20:34 | 39.87098 | -75.22845 | 23 ft | 7 kts | 239° |
| 2026-04-25 20:35 | 39.87096 | -75.22897 | 19 ft | 6 kts | 302° |
| 2026-04-25 20:35 | 39.87123 | -75.22933 | 17 ft | 5 kts | 321° |
| 2026-04-25 20:35 | 39.87159 | -75.22964 | 19 ft | 7 kts | 335° |
| 2026-04-25 20:35 | 39.87203 | -75.22987 | 16 ft | 7 kts | 339° |
| 2026-04-25 20:36 | 39.87245 | -75.23007 | 18 ft | 6 kts | 340° |
| 2026-04-25 20:36 | 39.87281 | -75.23024 | 17 ft | 4 kts | 339° |
| 2026-04-25 20:36 | 39.87302 | -75.23035 | 18 ft | 3 kts | 339° |
| 2026-04-25 20:36 | 39.87343 | -75.23056 | 17 ft | 10 kts | 339° |
| 2026-04-25 20:37 | 39.87415 | -75.23092 | 17 ft | 11 kts | 339° |
| 2026-04-25 20:37 | 39.87483 | -75.23126 | 17 ft | 10 kts | 339° |
| 2026-04-25 20:37 | 39.87538 | -75.23154 | 21 ft | 7 kts | 339° |
| 2026-04-25 20:37 | 39.87578 | -75.23174 | 20 ft | 5 kts | 339° |
| 2026-04-25 20:38 | 39.87609 | -75.23189 | 22 ft | 4 kts | 340° |
| 2026-04-25 20:38 | 39.87645 | -75.23205 | 21 ft | 6 kts | 339° |
| 2026-04-25 20:38 | 39.87684 | -75.23225 | 20 ft | 6 kts | 339° |
| 2026-04-25 20:38 | 39.87702 | -75.23234 | 22 ft | 6 kts | 340° |
| 2026-04-25 20:39 | 39.87724 | -75.23245 | 23 ft | 7 kts | 339° |
| 2026-04-25 20:39 | 39.87773 | -75.23269 | 23 ft | 8 kts | 339° |
| 2026-04-25 20:39 | 39.87825 | -75.23295 | 23 ft | 8 kts | 324° |
| 2026-04-25 20:39 | 39.87837 | -75.23314 | 23 ft | 8 kts | 296° |
| 2026-04-25 20:40 | 39.87860 | -75.23465 | 20 ft | 9 kts | 263° |
| 2026-04-25 20:40 | 39.87849 | -75.23519 | 22 ft | 1 kts | 233° |
| 2026-04-25 20:40 | 39.87832 | -75.23534 | 19 ft | 4 kts | 211° |
| 2026-04-25 20:40 | 39.87819 | -75.23546 | 19 ft | 2 kts | 231° |
| 2026-04-25 20:41 | 39.87814 | -75.23573 | 20 ft | 4 kts | 258° |
| 2026-04-25 20:41 | 39.87813 | -75.23579 | 20 ft | 0 kts | 258° |